createdAt,value
2023-05-17T00:14:29.486Z,99.90
2023-05-17T00:37:41.258Z,99.90
2023-05-17T00:58:40.201Z,99.90
2023-05-17T01:16:13.342Z,99.90
2023-05-17T01:46:36.821Z,99.90
2023-05-17T02:10:26.380Z,99.90
2023-05-17T02:13:20.318Z,99.90
2023-05-17T02:18:42.948Z,99.90
2023-05-17T02:30:02.507Z,99.90
2023-05-17T02:32:36.799Z,99.90
2023-05-17T02:46:17.116Z,99.90
2023-05-17T02:49:01.197Z,99.90
2023-05-17T02:51:30.886Z,99.90
2023-05-17T02:53:59.530Z,99.90
2023-05-17T02:56:30.608Z,99.90
2023-05-17T02:59:02.054Z,99.90
2023-05-17T03:01:35.802Z,99.90
2023-05-17T03:04:07.111Z,99.90
2023-05-17T03:06:38.287Z,99.90
2023-05-17T03:09:09.095Z,99.90
2023-05-17T03:11:37.182Z,99.90
2023-05-17T03:14:10.109Z,99.90
2023-05-17T03:16:39.169Z,99.90
2023-05-17T03:19:09.309Z,99.90
2023-05-17T03:21:37.888Z,99.90
2023-05-17T03:24:07.060Z,99.90
2023-05-17T03:26:37.958Z,99.90
2023-05-17T03:29:15.018Z,99.90
2023-05-17T03:31:49.849Z,99.90
2023-05-17T03:34:23.084Z,99.90
2023-05-17T03:36:52.686Z,99.90
2023-05-17T03:39:21.956Z,99.90
2023-05-17T03:41:52.997Z,99.90
2023-05-17T03:44:21.575Z,99.90
2023-05-17T03:46:52.754Z,99.90
2023-05-17T03:49:23.542Z,99.90
2023-05-17T03:51:52.707Z,99.90
2023-05-17T03:54:22.469Z,99.90
2023-05-17T03:56:50.995Z,99.90
2023-05-17T03:59:23.198Z,99.90
2023-05-17T04:01:54.980Z,99.90
2023-05-17T04:04:24.086Z,99.90
2023-05-17T04:06:53.013Z,99.90
2023-05-17T04:09:23.779Z,99.90
2023-05-17T04:11:53.411Z,99.90
2023-05-17T04:14:24.091Z,99.90
2023-05-17T04:16:53.966Z,99.90
2023-05-17T04:19:24.845Z,99.90
2023-05-17T04:21:55.322Z,99.90
2023-05-17T04:24:24.681Z,99.90
2023-05-17T04:26:54.183Z,99.90
2023-05-17T04:29:23.154Z,99.90
2023-05-17T04:31:54.345Z,99.90
2023-05-17T04:34:26.192Z,99.90
2023-05-17T04:36:57.223Z,99.90
2023-05-17T04:39:28.762Z,99.90
2023-05-17T04:42:00.578Z,99.90
2023-05-17T04:44:30.707Z,99.90
2023-05-17T04:47:01.217Z,99.90
2023-05-17T04:49:33.562Z,99.90
2023-05-17T04:52:06.167Z,99.90
2023-05-17T04:54:42.761Z,99.90
2023-05-17T04:57:12.504Z,99.90
2023-05-17T04:59:41.716Z,99.90
2023-05-17T05:02:13.377Z,99.90
2023-05-17T05:04:45.936Z,99.90
2023-05-17T05:07:15.234Z,99.90
2023-05-17T05:09:45.984Z,99.90
2023-05-17T05:12:15.283Z,99.90
2023-05-17T05:14:47.151Z,99.90
2023-05-17T05:17:18.067Z,99.90
2023-05-17T05:19:48.116Z,99.90
2023-05-17T05:22:16.992Z,99.90
2023-05-17T05:24:45.300Z,99.90
2023-05-17T05:27:15.286Z,99.90
2023-05-17T05:29:49.184Z,99.90
2023-05-17T05:32:19.842Z,99.90
2023-05-17T05:34:50.984Z,99.90
2023-05-17T05:37:20.832Z,99.90
2023-05-17T05:39:54.418Z,99.90
2023-05-17T05:42:26.759Z,99.90
2023-05-17T05:44:56.447Z,99.90
2023-05-17T05:47:26.046Z,99.90
2023-05-17T05:49:57.169Z,99.90
2023-05-17T05:52:27.843Z,99.90
2023-05-17T05:54:59.153Z,99.90
2023-05-17T05:57:29.558Z,99.90
2023-05-17T06:00:00.980Z,99.90
2023-05-17T06:02:29.696Z,99.90
2023-05-17T06:05:00.705Z,99.90
2023-05-17T06:07:29.707Z,99.90
2023-05-17T06:09:59.808Z,99.90
2023-05-17T06:12:31.863Z,99.90
2023-05-17T06:15:15.270Z,96.80
2023-05-17T06:17:55.367Z,93.10
2023-05-17T06:20:25.744Z,85.40
2023-05-17T06:23:00.155Z,76.00
2023-05-17T06:25:30.906Z,73.90
2023-05-17T06:28:00.715Z,76.60
2023-05-17T06:30:30.134Z,78.30
2023-05-17T06:33:01.788Z,79.30
2023-05-17T06:35:43.750Z,76.60
2023-05-17T06:38:22.112Z,78.00
2023-05-17T06:40:54.636Z,81.50
2023-05-17T06:43:26.776Z,81.70
2023-05-17T06:45:59.408Z,81.80
2023-05-17T06:48:33.798Z,79.20
2023-05-17T06:51:03.691Z,79.20
2023-05-17T06:53:32.842Z,79.30
2023-05-17T06:56:07.900Z,80.30
2023-05-17T06:58:36.681Z,80.70
2023-05-17T07:01:07.242Z,82.40
2023-05-17T07:03:37.485Z,81.20
2023-05-17T07:06:06.487Z,81.70
2023-05-17T07:08:36.012Z,81.90
2023-05-17T07:11:09.148Z,82.10
2023-05-17T07:13:39.371Z,82.20
2023-05-17T07:16:11.814Z,85.90
2023-05-17T07:18:45.111Z,87.00
2023-05-17T07:21:13.813Z,87.00
2023-05-17T07:23:43.442Z,85.70
2023-05-17T07:26:13.076Z,84.90
2023-05-17T07:28:42.498Z,84.40
2023-05-17T07:31:12.547Z,83.70
2023-05-17T07:33:41.053Z,80.90
2023-05-17T07:36:09.803Z,79.50
2023-05-17T07:38:38.226Z,78.80
2023-05-17T07:41:09.999Z,78.40
2023-05-17T07:43:40.202Z,75.20
2023-05-17T07:46:13.018Z,69.80
2023-05-17T07:48:45.355Z,67.90
2023-05-17T07:51:15.839Z,62.90
2023-05-17T07:53:51.366Z,63.60
2023-05-17T07:56:24.525Z,62.50
2023-05-17T07:58:57.776Z,64.10
2023-05-17T08:01:31.367Z,57.30
2023-05-17T08:04:01.009Z,56.00
2023-05-17T08:06:31.485Z,56.80
2023-05-17T08:09:01.401Z,54.50
2023-05-17T08:11:30.389Z,55.10
2023-05-17T08:14:03.196Z,54.60
2023-05-17T08:16:34.804Z,55.80
2023-05-17T08:19:07.932Z,53.50
2023-05-17T08:21:39.547Z,53.90
2023-05-17T08:24:08.627Z,55.30
2023-05-17T08:26:41.301Z,55.50
2023-05-17T08:29:10.567Z,56.40
2023-05-17T08:31:38.824Z,54.70
2023-05-17T08:34:09.644Z,56.40
2023-05-17T08:36:39.596Z,53.60
2023-05-17T08:39:11.407Z,52.40
2023-05-17T08:41:44.194Z,51.60
2023-05-17T08:44:24.808Z,52.40
2023-05-17T08:46:54.078Z,49.80
2023-05-17T08:49:24.519Z,49.20
2023-05-17T08:51:59.823Z,45.30
2023-05-17T08:54:31.483Z,46.80
2023-05-17T08:57:05.852Z,48.10
2023-05-17T08:59:36.580Z,46.10
2023-05-17T09:02:12.004Z,47.90
2023-05-17T09:04:41.915Z,44.90
2023-05-17T09:07:13.855Z,44.20
2023-05-17T09:09:44.645Z,46.60
2023-05-17T09:12:19.874Z,47.70
2023-05-17T09:14:51.446Z,45.60
2023-05-17T09:17:21.432Z,47.40
2023-05-17T09:19:53.285Z,47.70
2023-05-17T09:22:23.358Z,49.50
2023-05-17T09:24:52.452Z,51.70
2023-05-17T09:27:24.241Z,51.30
2023-05-17T09:29:58.943Z,55.50
2023-05-17T09:32:32.134Z,52.30
2023-05-17T09:35:05.337Z,54.60
2023-05-17T09:37:34.660Z,51.10
2023-05-17T09:40:07.725Z,49.90
2023-05-17T09:42:42.965Z,49.50
2023-05-17T09:45:15.460Z,50.60
2023-05-17T09:47:44.462Z,51.90
2023-05-17T09:50:26.023Z,53.20
2023-05-17T09:52:56.672Z,56.20
2023-05-17T09:55:29.526Z,57.40
2023-05-17T09:58:05.195Z,56.10
2023-05-17T10:00:37.372Z,55.90
2023-05-17T10:03:07.378Z,55.60
2023-05-17T10:05:39.222Z,55.60
2023-05-17T10:08:10.850Z,59.90
2023-05-17T10:10:41.799Z,58.50
2023-05-17T10:13:15.862Z,59.30
2023-05-17T10:15:45.515Z,58.10
2023-05-17T10:18:17.200Z,59.20
2023-05-17T10:20:48.471Z,59.10
2023-05-17T10:23:21.405Z,59.80
2023-05-17T10:25:52.678Z,58.20
2023-05-17T10:28:23.037Z,57.40
2023-05-17T10:30:54.489Z,57.50
2023-05-17T10:33:25.249Z,58.10
2023-05-17T10:35:57.594Z,58.40
2023-05-17T10:38:38.785Z,58.20
2023-05-17T10:41:10.989Z,58.90
2023-05-17T10:43:41.746Z,58.20
2023-05-17T10:46:24.238Z,60.20
2023-05-17T10:48:54.982Z,59.20
2023-05-17T10:51:32.094Z,60.90
2023-05-17T10:54:10.106Z,62.80
2023-05-17T10:56:43.840Z,61.40
2023-05-17T10:59:25.126Z,65.00
2023-05-17T11:01:54.185Z,62.20
2023-05-17T11:04:34.638Z,61.80
2023-05-17T11:07:15.002Z,61.00
2023-05-17T11:09:44.669Z,57.70
2023-05-17T11:12:15.345Z,59.80
2023-05-17T11:14:46.685Z,59.50
2023-05-17T11:17:19.811Z,58.60
2023-05-17T11:20:02.980Z,58.50
2023-05-17T11:22:38.659Z,56.90
2023-05-17T11:25:17.075Z,58.00
2023-05-17T11:27:53.084Z,55.90
2023-05-17T11:30:31.569Z,59.10
2023-05-17T11:33:09.053Z,60.50
2023-05-17T11:35:46.993Z,59.90
2023-05-17T11:38:23.614Z,56.10
2023-05-17T11:40:57.779Z,58.70
2023-05-17T11:43:29.696Z,55.90
2023-05-17T11:46:03.501Z,54.10
2023-05-17T11:48:33.137Z,55.20
2023-05-17T11:51:03.020Z,55.10
2023-05-17T11:53:35.799Z,55.90
2023-05-17T11:56:07.470Z,58.80
2023-05-17T11:58:37.342Z,56.60
2023-05-17T12:01:07.412Z,57.50
2023-05-17T12:03:37.338Z,58.00
2023-05-17T12:06:11.243Z,57.50
2023-05-17T12:08:40.166Z,55.50
2023-05-17T13:46:28.457Z,60.80
2023-05-17T13:48:59.030Z,59.80
2023-05-17T13:51:29.002Z,59.20
2023-05-17T13:54:05.161Z,58.80
2023-05-17T13:56:36.980Z,59.40
2023-05-17T13:59:07.206Z,57.90
2023-05-17T14:01:53.069Z,59.40
2023-05-17T14:04:59.456Z,60.50
2023-05-17T14:07:29.796Z,61.60
2023-05-17T14:10:00.625Z,62.50
2023-05-17T14:12:30.234Z,61.70
2023-05-17T14:14:59.142Z,60.10
2023-05-17T15:07:47.182Z,64.00
2023-05-17T15:12:59.211Z,57.60
2023-05-17T15:26:17.961Z,63.00
2023-05-17T15:28:48.157Z,62.80
2023-05-17T15:31:16.504Z,64.00
2023-05-17T15:33:45.129Z,65.30
2023-05-17T15:36:14.431Z,65.80
2023-05-17T15:38:42.853Z,66.40
2023-05-17T15:41:15.078Z,67.30
2023-05-17T15:43:47.385Z,67.40
2023-05-17T15:46:18.302Z,66.20
2023-05-17T15:48:45.867Z,68.00
2023-05-17T15:51:13.283Z,69.20
2023-05-17T15:53:44.567Z,66.60
2023-05-17T15:59:54.613Z,67.40
2023-05-17T16:02:22.461Z,67.10
2023-05-17T16:04:53.304Z,66.80
2023-05-17T16:07:36.695Z,66.50
2023-05-17T16:10:09.663Z,68.40
2023-05-17T16:12:37.506Z,66.40
2023-05-17T16:15:08.107Z,66.80
2023-05-17T16:17:36.232Z,66.90
2023-05-17T16:39:32.742Z,71.50
2023-05-17T16:42:04.481Z,71.10
2023-05-17T16:44:48.367Z,71.70
2023-05-17T16:47:29.496Z,73.30
2023-05-17T17:11:33.250Z,76.70
2023-05-17T17:14:15.526Z,78.70
2023-05-17T17:16:44.410Z,77.50
2023-05-17T17:19:13.822Z,77.70
2023-05-17T17:21:43.006Z,76.30
2023-05-17T17:24:12.464Z,75.50
2023-05-17T17:26:41.004Z,74.90
2023-05-17T17:29:09.769Z,74.70
2023-05-17T17:31:38.876Z,76.20
2023-05-17T17:34:15.559Z,77.10
2023-05-17T17:36:44.947Z,76.50
2023-05-17T17:39:14.421Z,77.20
2023-05-17T17:41:41.218Z,77.90
2023-05-17T17:44:07.997Z,77.40
2023-05-17T17:46:34.865Z,77.20
2023-05-17T17:49:01.760Z,78.10
2023-05-17T17:51:28.580Z,78.20
2023-05-17T17:53:55.793Z,78.50
2023-05-17T17:56:23.961Z,78.20
2023-05-17T17:58:53.585Z,78.60
2023-05-17T18:01:20.408Z,79.00
2023-05-17T18:03:47.175Z,78.90
2023-05-17T18:06:13.940Z,80.00
2023-05-17T18:08:40.703Z,80.50
2023-05-17T18:11:07.484Z,81.10
2023-05-17T18:13:34.351Z,80.90
2023-05-17T18:16:01.122Z,81.20
2023-05-17T18:18:27.892Z,83.20
2023-05-17T18:20:54.739Z,82.90
2023-05-17T18:23:21.632Z,83.40
2023-05-17T18:25:50.572Z,84.10
2023-05-17T18:28:23.943Z,84.10
2023-05-17T18:30:58.065Z,84.60
2023-05-17T18:33:25.402Z,84.30
2023-05-17T18:35:52.273Z,83.90
2023-05-17T18:38:19.059Z,84.30
2023-05-17T18:40:45.913Z,85.00
2023-05-17T18:43:12.948Z,85.80
2023-05-17T18:45:39.747Z,84.80
2023-05-17T18:48:06.604Z,85.90
2023-05-17T18:50:33.511Z,86.00
2023-05-17T18:53:00.588Z,85.90
2023-05-17T18:55:27.418Z,85.40
2023-05-17T18:57:54.259Z,85.70
2023-05-17T19:00:21.216Z,85.80
2023-05-17T19:02:48.740Z,86.60
2023-05-17T19:05:15.519Z,87.40
2023-05-17T19:07:42.590Z,87.30
2023-05-17T19:10:10.034Z,87.30
2023-05-17T19:12:36.873Z,88.40
2023-05-17T19:15:04.577Z,87.50
2023-05-17T19:17:31.513Z,88.00
2023-05-17T19:19:58.399Z,89.00
2023-05-17T19:22:25.313Z,88.20
2023-05-17T19:24:52.154Z,88.20
2023-05-17T19:27:19.901Z,88.50
2023-05-17T19:29:49.850Z,89.00
2023-05-17T19:32:16.860Z,90.00
2023-05-17T19:34:44.060Z,89.80
2023-05-17T19:37:10.844Z,90.20
2023-05-17T19:39:37.638Z,90.40
2023-05-17T19:42:04.594Z,90.40
2023-05-17T19:44:31.471Z,90.50
2023-05-17T19:46:58.250Z,90.70
2023-05-17T19:49:25.230Z,91.10
2023-05-17T19:51:54.093Z,90.90
2023-05-17T19:54:21.954Z,91.30
2023-05-17T19:56:48.733Z,91.40
2023-05-17T19:59:15.578Z,91.60
2023-05-17T20:01:42.469Z,91.80
2023-05-17T20:04:10.598Z,91.90
2023-05-17T20:06:37.974Z,92.20
2023-05-17T20:09:04.880Z,92.20
2023-05-17T20:11:31.895Z,92.60
2023-05-17T20:13:58.686Z,92.50
2023-05-17T20:16:28.035Z,92.70
2023-05-17T20:18:55.119Z,93.00
2023-05-17T20:21:23.318Z,92.80
2023-05-17T20:23:51.419Z,93.50
2023-05-17T20:26:25.473Z,93.10
2023-05-17T20:28:52.792Z,93.70
2023-05-17T20:31:19.787Z,93.50
2023-05-17T20:33:46.663Z,93.50
2023-05-17T20:36:14.643Z,93.50
2023-05-17T20:38:42.737Z,93.40
2023-05-17T20:41:10.990Z,93.30
2023-05-17T20:43:37.930Z,93.30
2023-05-17T20:46:07.017Z,93.70
2023-05-17T20:48:34.295Z,93.50
2023-05-17T20:51:01.658Z,94.20
2023-05-17T20:53:30.431Z,94.00
2023-05-17T20:55:57.639Z,93.80
2023-05-17T20:58:24.541Z,93.90
2023-05-17T21:00:52.885Z,94.30
2023-05-17T21:03:19.880Z,94.20
2023-05-17T21:05:47.058Z,94.10
2023-05-17T21:08:13.844Z,94.70
2023-05-17T21:10:42.816Z,94.50
2023-05-17T21:13:09.783Z,94.80
2023-05-17T21:15:36.975Z,95.00
2023-05-17T21:18:05.899Z,94.90
2023-05-17T21:20:33.002Z,95.10
2023-05-17T21:22:59.750Z,95.70
2023-05-17T21:25:26.499Z,95.50
2023-05-17T21:27:53.297Z,96.30
2023-05-17T21:30:20.354Z,96.10
2023-05-17T21:32:47.172Z,95.80
2023-05-17T21:35:13.966Z,96.40
2023-05-17T21:37:41.882Z,96.40
2023-05-17T21:40:09.950Z,96.40
2023-05-17T21:42:36.794Z,96.90
2023-05-17T21:45:03.832Z,96.80
2023-05-17T21:47:30.712Z,96.90
2023-05-17T21:49:57.654Z,96.90
2023-05-17T21:52:24.413Z,97.40
2023-05-17T21:54:51.181Z,98.00
2023-05-17T21:57:20.757Z,98.30
2023-05-17T21:59:48.586Z,98.50
2023-05-17T22:02:15.445Z,98.90
2023-05-17T22:04:42.553Z,99.20
2023-05-17T22:07:13.215Z,99.00
2023-05-17T22:09:40.368Z,99.30
2023-05-17T22:12:08.676Z,99.40
2023-05-17T22:14:36.422Z,99.90
2023-05-17T22:17:09.107Z,99.90
2023-05-17T22:19:40.962Z,99.90
2023-05-17T22:22:08.585Z,99.90
2023-05-17T22:24:35.866Z,99.90
2023-05-17T22:27:03.458Z,99.90
2023-05-17T22:29:30.505Z,99.90
2023-05-17T22:31:57.345Z,99.90
2023-05-17T22:36:51.997Z,99.90
2023-05-17T22:39:19.302Z,99.90
2023-05-17T22:41:46.140Z,99.90
2023-05-17T22:44:12.922Z,99.90
2023-05-17T22:46:41.980Z,99.90
2023-05-17T22:49:08.914Z,99.90
2023-05-17T22:51:35.775Z,99.90
2023-05-17T22:54:03.364Z,99.90
2023-05-17T22:56:30.310Z,99.90
2023-05-17T22:58:58.232Z,99.90
2023-05-17T23:01:25.755Z,99.90
2023-05-17T23:03:52.819Z,99.90
2023-05-17T23:06:22.090Z,99.90
2023-05-17T23:08:49.669Z,99.90
2023-05-17T23:11:16.453Z,99.90
2023-05-17T23:13:43.275Z,99.90
2023-05-17T23:16:10.793Z,99.90
2023-05-17T23:18:38.201Z,99.90
2023-05-17T23:21:05.022Z,99.90
2023-05-17T23:23:31.853Z,99.90
2023-05-17T23:25:58.739Z,99.90
2023-05-17T23:28:25.614Z,99.90
2023-05-17T23:30:53.722Z,99.90
2023-05-17T23:33:20.570Z,99.90
2023-05-17T23:35:47.326Z,99.90
2023-05-17T23:38:14.082Z,99.90
2023-05-17T23:40:40.940Z,99.90
2023-05-17T23:43:10.007Z,99.90
2023-05-17T23:45:36.935Z,99.90
2023-05-17T23:48:03.796Z,99.90
2023-05-17T23:50:30.654Z,99.90
2023-05-17T23:52:57.408Z,99.90
2023-05-17T23:55:24.213Z,99.90
2023-05-17T23:57:51.736Z,99.90
